Terminal Aerodrome Forecast
Issued by NWS Burlington, VT

Home | Current Version | Previous Version | Text Only | Print | Product List | Glossary On
Versions: 1 2 3 4 5 6 7 8 9 10 11 12 13 14 15 16 17 18 19 20 21 22
261
FTUS41 KBTV 121125
TAFBTV
TAF
KBTV 121125Z 1212/1312 00000KT P6SM FEW030
     FM121400 19007KT P6SM SCT060
     FM121700 19010G18KT P6SM BKN040
     FM130400 18014G25KT P6SM VCSH BKN040
     FM130700 20009KT P6SM VCSH OVC020
     FM130900 29010G19KT 2SM -SHSN BR OVC020
     FM131000 30011G20KT P6SM VCSH OVC020=

USA.gov is the U.S. government's official web portal to all federal, state and local government web resources and services.